sensor_id;sensor_type;location;lat;lon;timestamp;pressure;altitude;pressure_sealevel;temperature;humidity
19624;BME280;9959;49.798;9.928;2023-07-31T00:01:19;99501.94;;;18.07;65.52
19624;BME280;9959;49.798;9.928;2023-07-31T00:03:46;99499.78;;;18.09;65.60
19624;BME280;9959;49.798;9.928;2023-07-31T00:06:13;99501.94;;;18.07;65.17
19624;BME280;9959;49.798;9.928;2023-07-31T00:08:40;99499.78;;;18.09;65.36
19624;BME280;9959;49.798;9.928;2023-07-31T00:11:07;99492.41;;;18.04;65.92
19624;BME280;9959;49.798;9.928;2023-07-31T00:13:34;99492.13;;;18.01;66.01
19624;BME280;9959;49.798;9.928;2023-07-31T00:16:01;99493.75;;;18.02;65.49
19624;BME280;9959;49.798;9.928;2023-07-31T00:18:28;99490.47;;;18.00;65.99
19624;BME280;9959;49.798;9.928;2023-07-31T00:20:55;99497.31;;;18.02;65.58
19624;BME280;9959;49.798;9.928;2023-07-31T00:23:22;99490.75;;;17.98;66.80
19624;BME280;9959;49.798;9.928;2023-07-31T00:25:49;99497.19;;;17.87;66.81
19624;BME280;9959;49.798;9.928;2023-07-31T00:28:17;99497.72;;;17.84;67.46
19624;BME280;9959;49.798;9.928;2023-07-31T00:30:44;99490.91;;;17.81;68.67
19624;BME280;9959;49.798;9.928;2023-07-31T00:33:11;99489.25;;;17.75;68.27
19624;BME280;9959;49.798;9.928;2023-07-31T00:35:38;99472.59;;;17.72;69.28
19624;BME280;9959;49.798;9.928;2023-07-31T00:38:05;99477.44;;;17.65;69.17
19624;BME280;9959;49.798;9.928;2023-07-31T00:40:37;99479.28;;;17.59;69.69
19624;BME280;9959;49.798;9.928;2023-07-31T00:43:04;99483.03;;;17.48;70.40
19624;BME280;9959;49.798;9.928;2023-07-31T00:45:32;99477.03;;;17.51;70.21
19624;BME280;9959;49.798;9.928;2023-07-31T00:47:59;99491.16;;;17.43;70.77
19624;BME280;9959;49.798;9.928;2023-07-31T00:50:26;99494.19;;;17.46;71.57
19624;BME280;9959;49.798;9.928;2023-07-31T00:52:54;99491.72;;;17.45;70.89
19624;BME280;9959;49.798;9.928;2023-07-31T00:55:21;99491.44;;;17.46;70.79
19624;BME280;9959;49.798;9.928;2023-07-31T00:57:49;99478.91;;;17.45;70.59
19624;BME280;9959;49.798;9.928;2023-07-31T01:00:16;99480.78;;;17.40;71.23
19624;BME280;9959;49.798;9.928;2023-07-31T01:02:44;99479.94;;;17.39;71.47
19624;BME280;9959;49.798;9.928;2023-07-31T01:05:11;99479.09;;;17.34;71.69
19624;BME280;9959;49.798;9.928;2023-07-31T01:07:45;99479.13;;;17.39;71.98
19624;BME280;9959;49.798;9.928;2023-07-31T01:10:20;99472.03;;;17.38;71.38
19624;BME280;9959;49.798;9.928;2023-07-31T01:12:48;99482.31;;;17.31;72.17
19624;BME280;9959;49.798;9.928;2023-07-31T01:15:17;99472.78;;;17.28;72.85
19624;BME280;9959;49.798;9.928;2023-07-31T01:17:44;99477.91;;;17.24;73.43
19624;BME280;9959;49.798;9.928;2023-07-31T01:20:15;99479.53;;;17.20;73.24
19624;BME280;9959;49.798;9.928;2023-07-31T01:28:28;99457.13;;;17.13;73.78
19624;BME280;9959;49.798;9.928;2023-07-31T01:30:59;99452.78;;;17.12;74.60
19624;BME280;9959;49.798;9.928;2023-07-31T01:33:27;99445.44;;;17.13;74.11
19624;BME280;9959;49.798;9.928;2023-07-31T01:35:55;99448.34;;;17.06;74.48
19624;BME280;9959;49.798;9.928;2023-07-31T01:38:23;99443.47;;;17.08;74.68
19624;BME280;9959;49.798;9.928;2023-07-31T01:40:53;99432.81;;;17.02;75.12
19624;BME280;9959;49.798;9.928;2023-07-31T01:43:20;99439.13;;;17.07;74.75
19624;BME280;9959;49.798;9.928;2023-07-31T01:45:47;99441.28;;;17.05;74.67
19624;BME280;9959;49.798;9.928;2023-07-31T01:48:15;99437.22;;;17.08;75.40
19624;BME280;9959;49.798;9.928;2023-07-31T01:50:42;99435.81;;;17.05;75.83
19624;BME280;9959;49.798;9.928;2023-07-31T01:53:09;99436.34;;;17.02;75.57
19624;BME280;9959;49.798;9.928;2023-07-31T01:55:36;99435.53;;;17.02;75.78
19624;BME280;9959;49.798;9.928;2023-07-31T01:58:03;99429.06;;;17.08;74.44
19624;BME280;9959;49.798;9.928;2023-07-31T02:00:29;99433.63;;;17.02;74.90
19624;BME280;9959;49.798;9.928;2023-07-31T02:02:56;99438.00;;;17.03;74.72
19624;BME280;9959;49.798;9.928;2023-07-31T02:05:23;99426.59;;;17.06;74.67
19624;BME280;9959;49.798;9.928;2023-07-31T02:07:50;99427.09;;;17.03;74.73
19624;BME280;9959;49.798;9.928;2023-07-31T02:10:17;99424.72;;;17.12;74.50
19624;BME280;9959;49.798;9.928;2023-07-31T02:12:44;99415.69;;;17.06;74.82
19624;BME280;9959;49.798;9.928;2023-07-31T02:15:11;99414.56;;;17.02;75.49
19624;BME280;9959;49.798;9.928;2023-07-31T02:17:38;99412.88;;;16.96;74.93
19624;BME280;9959;49.798;9.928;2023-07-31T02:20:05;99402.56;;;16.98;75.66
19624;BME280;9959;49.798;9.928;2023-07-31T02:22:32;99396.84;;;16.95;75.48
19624;BME280;9959;49.798;9.928;2023-07-31T02:24:59;99405.22;;;16.88;75.83
19624;BME280;9959;49.798;9.928;2023-07-31T02:27:26;99406.75;;;16.79;76.66
19624;BME280;9959;49.798;9.928;2023-07-31T02:29:54;99400.75;;;16.77;76.41
19624;BME280;9959;49.798;9.928;2023-07-31T02:32:21;99405.38;;;16.76;77.01
19624;BME280;9959;49.798;9.928;2023-07-31T02:34:48;99401.00;;;16.75;76.79
19624;BME280;9959;49.798;9.928;2023-07-31T02:37:15;99394.69;;;16.70;77.26
19624;BME280;9959;49.798;9.928;2023-07-31T02:39:42;99397.38;;;16.65;77.66
19624;BME280;9959;49.798;9.928;2023-07-31T02:42:09;99390.78;;;16.61;77.32
19624;BME280;9959;49.798;9.928;2023-07-31T02:44:36;99390.97;;;16.54;78.40
19624;BME280;9959;49.798;9.928;2023-07-31T02:47:03;99400.00;;;16.59;78.27
19624;BME280;9959;49.798;9.928;2023-07-31T02:49:30;99395.59;;;16.53;78.33
19624;BME280;9959;49.798;9.928;2023-07-31T02:51:57;99392.06;;;16.53;78.25
19624;BME280;9959;49.798;9.928;2023-07-31T02:54:23;99400.22;;;16.53;78.22
19624;BME280;9959;49.798;9.928;2023-07-31T02:56:50;99396.63;;;16.47;78.20
19624;BME280;9959;49.798;9.928;2023-07-31T02:59:17;99399.91;;;16.49;79.21
19624;BME280;9959;49.798;9.928;2023-07-31T03:01:45;99389.84;;;16.50;78.99
19624;BME280;9959;49.798;9.928;2023-07-31T03:04:12;99385.75;;;16.47;79.33
19624;BME280;9959;49.798;9.928;2023-07-31T03:06:39;99393.13;;;16.52;79.22
19624;BME280;9959;49.798;9.928;2023-07-31T03:09:06;99392.31;;;16.51;78.98
19624;BME280;9959;49.798;9.928;2023-07-31T03:11:33;99398.25;;;16.48;78.46
19624;BME280;9959;49.798;9.928;2023-07-31T03:14:00;99400.53;;;16.56;78.08
19624;BME280;9959;49.798;9.928;2023-07-31T03:16:26;99399.91;;;16.49;78.99
19624;BME280;9959;49.798;9.928;2023-07-31T03:18:54;99398.78;;;16.45;79.78
19624;BME280;9959;49.798;9.928;2023-07-31T03:21:21;99392.81;;;16.48;78.78
19624;BME280;9959;49.798;9.928;2023-07-31T03:23:47;99381.44;;;16.51;79.39
19624;BME280;9959;49.798;9.928;2023-07-31T03:26:14;99387.94;;;16.50;79.55
19624;BME280;9959;49.798;9.928;2023-07-31T03:28:41;99372.75;;;16.54;79.50
19624;BME280;9959;49.798;9.928;2023-07-31T03:31:08;99380.25;;;16.64;79.34
19624;BME280;9959;49.798;9.928;2023-07-31T03:33:35;99382.16;;;16.69;78.68
19624;BME280;9959;49.798;9.928;2023-07-31T03:36:02;99379.91;;;16.61;79.29
19624;BME280;9959;49.798;9.928;2023-07-31T03:38:29;99382.13;;;16.64;79.23
19624;BME280;9959;49.798;9.928;2023-07-31T03:40:55;99389.66;;;16.56;79.13
19624;BME280;9959;49.798;9.928;2023-07-31T03:43:22;99386.09;;;16.56;79.75
19624;BME280;9959;49.798;9.928;2023-07-31T03:45:49;99382.56;;;16.55;79.60
19624;BME280;9959;49.798;9.928;2023-07-31T03:48:16;99380.56;;;16.68;79.65
19624;BME280;9959;49.798;9.928;2023-07-31T03:50:43;99384.22;;;16.56;79.08
19624;BME280;9959;49.798;9.928;2023-07-31T03:53:10;99384.22;;;16.56;79.54
19624;BME280;9959;49.798;9.928;2023-07-31T03:55:37;99383.19;;;16.63;79.65
19624;BME280;9959;49.798;9.928;2023-07-31T03:58:04;99385.84;;;16.57;79.65
19624;BME280;9959;49.798;9.928;2023-07-31T04:00:31;99382.75;;;16.49;80.36
19624;BME280;9959;49.798;9.928;2023-07-31T04:02:57;99382.25;;;16.52;79.85
19624;BME280;9959;49.798;9.928;2023-07-31T04:05:24;99381.94;;;16.48;80.35
19624;BME280;9959;49.798;9.928;2023-07-31T04:07:51;99373.22;;;16.46;79.90
19624;BME280;9959;49.798;9.928;2023-07-31T04:10:18;99382.25;;;16.52;79.67
19624;BME280;9959;49.798;9.928;2023-07-31T04:12:48;99380.34;;;16.52;79.59
19624;BME280;9959;49.798;9.928;2023-07-31T04:15:15;99378.81;;;16.62;79.42
19624;BME280;9959;49.798;9.928;2023-07-31T04:17:42;99374.81;;;16.64;79.20
19624;BME280;9959;49.798;9.928;2023-07-31T04:20:09;99375.94;;;16.68;78.55
19624;BME280;9959;49.798;9.928;2023-07-31T04:22:36;99377.25;;;16.66;78.67
19624;BME280;9959;49.798;9.928;2023-07-31T04:25:03;99373.22;;;16.68;78.43
19624;BME280;9959;49.798;9.928;2023-07-31T04:27:30;99386.53;;;16.70;78.91
19624;BME280;9959;49.798;9.928;2023-07-31T04:29:57;99376.19;;;16.67;78.26
19624;BME280;9959;49.798;9.928;2023-07-31T04:32:23;99377.34;;;16.76;77.75
19624;BME280;9959;49.798;9.928;2023-07-31T04:34:50;99378.56;;;16.90;77.25
19624;BME280;9959;49.798;9.928;2023-07-31T04:37:17;99379.38;;;16.90;77.09
19624;BME280;9959;49.798;9.928;2023-07-31T04:39:44;99377.94;;;16.83;77.46
19624;BME280;9959;49.798;9.928;2023-07-31T04:42:11;99373.69;;;16.97;75.78
19624;BME280;9959;49.798;9.928;2023-07-31T04:44:38;99369.38;;;17.01;75.48
19624;BME280;9959;49.798;9.928;2023-07-31T04:47:05;99377.38;;;17.13;75.05
19624;BME280;9959;49.798;9.928;2023-07-31T04:49:32;99383.63;;;17.13;74.76
19624;BME280;9959;49.798;9.928;2023-07-31T04:51:59;99373.34;;;17.20;74.62
19624;BME280;9959;49.798;9.928;2023-07-31T04:54:26;99383.69;;;17.23;74.25
19624;BME280;9959;49.798;9.928;2023-07-31T04:56:53;99382.09;;;17.27;74.27
19624;BME280;9959;49.798;9.928;2023-07-31T04:59:20;99385.13;;;17.31;73.20
19624;BME280;9959;49.798;9.928;2023-07-31T05:01:47;99378.34;;;17.34;73.23
19624;BME280;9959;49.798;9.928;2023-07-31T05:04:14;99379.97;;;17.35;73.47
19624;BME280;9959;49.798;9.928;2023-07-31T05:06:41;99377.25;;;17.35;74.68
19624;BME280;9959;49.798;9.928;2023-07-31T05:09:08;99360.13;;;17.39;74.41
19624;BME280;9959;49.798;9.928;2023-07-31T05:11:38;99368.00;;;17.36;74.22
19624;BME280;9959;49.798;9.928;2023-07-31T05:14:07;99357.66;;;17.38;73.87
19624;BME280;9959;49.798;9.928;2023-07-31T05:16:34;99358.25;;;17.45;74.01
19624;BME280;9959;49.798;9.928;2023-07-31T05:19:01;99364.28;;;17.52;73.72
19624;BME280;9959;49.798;9.928;2023-07-31T05:21:28;99362.09;;;17.49;73.81
19624;BME280;9959;49.798;9.928;2023-07-31T05:23:55;99357.22;;;17.56;73.55
19624;BME280;9959;49.798;9.928;2023-07-31T05:26:22;99362.16;;;17.64;73.00
19624;BME280;9959;49.798;9.928;2023-07-31T05:28:49;99356.13;;;17.57;72.86
19624;BME280;9959;49.798;9.928;2023-07-31T05:31:15;99365.38;;;17.56;72.90
19624;BME280;9959;49.798;9.928;2023-07-31T05:33:42;99373.06;;;17.64;72.43
19624;BME280;9959;49.798;9.928;2023-07-31T05:36:10;99366.72;;;17.53;72.53
19624;BME280;9959;49.798;9.928;2023-07-31T05:38:37;99368.25;;;17.71;72.11
19624;BME280;9959;49.798;9.928;2023-07-31T05:41:06;99366.03;;;17.68;71.98
19624;BME280;9959;49.798;9.928;2023-07-31T05:43:33;99363.41;;;17.88;70.96
19624;BME280;9959;49.798;9.928;2023-07-31T05:46:00;99364.78;;;17.96;70.76
19624;BME280;9959;49.798;9.928;2023-07-31T05:48:32;99361.78;;;17.92;70.92
19624;BME280;9959;49.798;9.928;2023-07-31T05:50:58;99362.91;;;18.02;70.22
19624;BME280;9959;49.798;9.928;2023-07-31T05:53:25;99361.28;;;18.06;69.64
19624;BME280;9959;49.798;9.928;2023-07-31T05:55:52;99360.81;;;18.34;68.79
19624;BME280;9959;49.798;9.928;2023-07-31T05:58:19;99360.56;;;18.31;69.04
19624;BME280;9959;49.798;9.928;2023-07-31T06:00:46;99365.19;;;18.30;68.38
19624;BME280;9959;49.798;9.928;2023-07-31T06:03:13;99352.09;;;18.27;68.04
19624;BME280;9959;49.798;9.928;2023-07-31T06:05:40;99347.78;;;18.67;67.09
19624;BME280;9959;49.798;9.928;2023-07-31T06:08:07;99346.69;;;18.68;66.56
19624;BME280;9959;49.798;9.928;2023-07-31T06:10:34;99345.56;;;18.43;67.17
19624;BME280;9959;49.798;9.928;2023-07-31T06:13:07;99350.50;;;18.56;65.97
19624;BME280;9959;49.798;9.928;2023-07-31T06:15:34;99348.31;;;18.58;66.01
19624;BME280;9959;49.798;9.928;2023-07-31T06:18:01;99345.34;;;18.65;65.97
19624;BME280;9959;49.798;9.928;2023-07-31T06:20:30;99352.16;;;18.63;66.33
19624;BME280;9959;49.798;9.928;2023-07-31T06:22:56;99349.69;;;18.61;65.97
19624;BME280;9959;49.798;9.928;2023-07-31T06:25:23;99350.22;;;18.58;66.44
19624;BME280;9959;49.798;9.928;2023-07-31T06:27:50;99350.50;;;18.62;66.47
19624;BME280;9959;49.798;9.928;2023-07-31T06:30:17;99345.06;;;18.72;65.82
19624;BME280;9959;49.798;9.928;2023-07-31T06:32:44;99356.28;;;18.80;65.65
19624;BME280;9959;49.798;9.928;2023-07-31T06:35:11;99360.06;;;18.69;66.07
19624;BME280;9959;49.798;9.928;2023-07-31T06:37:38;99368.56;;;18.78;65.75
19624;BME280;9959;49.798;9.928;2023-07-31T06:40:07;99368.53;;;18.98;64.85
19624;BME280;9959;49.798;9.928;2023-07-31T06:42:35;99377.56;;;19.04;64.64
19624;BME280;9959;49.798;9.928;2023-07-31T06:45:03;99370.19;;;18.84;64.53
19624;BME280;9959;49.798;9.928;2023-07-31T06:47:29;99376.22;;;18.86;65.05
19624;BME280;9959;49.798;9.928;2023-07-31T06:49:56;99380.56;;;18.97;64.42
19624;BME280;9959;49.798;9.928;2023-07-31T06:52:23;99371.56;;;19.02;64.37
19624;BME280;9959;49.798;9.928;2023-07-31T06:55:21;99369.38;;;19.04;64.44
19624;BME280;9959;49.798;9.928;2023-07-31T06:57:53;99371.81;;;19.15;63.77
19624;BME280;9959;49.798;9.928;2023-07-31T07:00:21;99364.69;;;19.24;63.82
19624;BME280;9959;49.798;9.928;2023-07-31T07:02:48;99364.69;;;19.24;63.58
19624;BME280;9959;49.798;9.928;2023-07-31T07:05:16;99356.50;;;19.19;63.70
19624;BME280;9959;49.798;9.928;2023-07-31T07:07:43;99364.72;;;19.14;63.62
19624;BME280;9959;49.798;9.928;2023-07-31T07:10:10;99361.97;;;19.24;63.43
19624;BME280;9959;49.798;9.928;2023-07-31T07:12:37;99358.59;;;19.78;61.43
19624;BME280;9959;49.798;9.928;2023-07-31T07:15:04;99353.47;;;19.56;62.55
19624;BME280;9959;49.798;9.928;2023-07-31T07:17:32;99349.91;;;19.66;61.79
19624;BME280;9959;49.798;9.928;2023-07-31T07:19:59;99357.75;;;19.83;61.39
19624;BME280;9959;49.798;9.928;2023-07-31T07:22:27;99344.88;;;19.88;61.30
19624;BME280;9959;49.798;9.928;2023-07-31T07:24:54;99364.59;;;19.75;61.48
19624;BME280;9959;49.798;9.928;2023-07-31T07:27:21;99353.19;;;19.63;62.82
19624;BME280;9959;49.798;9.928;2023-07-31T07:29:50;99347.66;;;19.73;62.07
19624;BME280;9959;49.798;9.928;2023-07-31T07:32:18;99357.06;;;20.11;61.21
19624;BME280;9959;49.798;9.928;2023-07-31T07:34:45;99348.38;;;19.99;61.50
19624;BME280;9959;49.798;9.928;2023-07-31T07:37:12;99349.34;;;19.69;62.26
19624;BME280;9959;49.798;9.928;2023-07-31T07:39:38;99360.75;;;19.86;62.28
19624;BME280;9959;49.798;9.928;2023-07-31T07:42:05;99342.72;;;19.75;62.34
19624;BME280;9959;49.798;9.928;2023-07-31T07:44:32;99349.00;;;20.40;59.96
19624;BME280;9959;49.798;9.928;2023-07-31T07:46:59;99345.59;;;20.58;59.38
19624;BME280;9959;49.798;9.928;2023-07-31T07:49:26;99339.81;;;20.21;60.55
19624;BME280;9959;49.798;9.928;2023-07-31T07:51:53;99335.50;;;20.00;61.22
19624;BME280;9959;49.798;9.928;2023-07-31T07:54:20;99335.50;;;21.17;58.12
19624;BME280;9959;49.798;9.928;2023-07-31T07:56:47;99321.63;;;21.61;56.55
19624;BME280;9959;49.798;9.928;2023-07-31T07:59:14;99318.66;;;21.34;56.59
19624;BME280;9959;49.798;9.928;2023-07-31T08:01:41;99322.94;;;21.45;57.05
19624;BME280;9959;49.798;9.928;2023-07-31T08:04:08;99331.91;;;21.26;57.99
19624;BME280;9959;49.798;9.928;2023-07-31T08:06:35;99319.84;;;20.59;59.32
19624;BME280;9959;49.798;9.928;2023-07-31T08:09:02;99317.69;;;21.19;57.98
19624;BME280;9959;49.798;9.928;2023-07-31T08:11:33;99318.66;;;20.76;59.28
19624;BME280;9959;49.798;9.928;2023-07-31T08:14:00;99330.28;;;20.91;59.40
19624;BME280;9959;49.798;9.928;2023-07-31T08:16:27;99330.56;;;20.90;58.89
19624;BME280;9959;49.798;9.928;2023-07-31T08:18:54;99334.16;;;20.51;60.37
19624;BME280;9959;49.798;9.928;2023-07-31T08:21:21;99331.72;;;21.13;58.27
19624;BME280;9959;49.798;9.928;2023-07-31T08:23:48;99332.13;;;21.01;58.59
19624;BME280;9959;49.798;9.928;2023-07-31T08:26:16;99328.09;;;21.22;58.17
19624;BME280;9959;49.798;9.928;2023-07-31T08:28:43;99330.59;;;20.85;59.19
19624;BME280;9959;49.798;9.928;2023-07-31T08:31:10;99320.75;;;20.84;58.91
19624;BME280;9959;49.798;9.928;2023-07-31T08:33:38;99328.81;;;21.33;57.59
19624;BME280;9959;49.798;9.928;2023-07-31T08:36:05;99327.81;;;21.24;57.84
19624;BME280;9959;49.798;9.928;2023-07-31T08:38:32;99322.63;;;21.17;58.11
19624;BME280;9959;49.798;9.928;2023-07-31T08:40:59;99334.22;;;21.09;58.45
19624;BME280;9959;49.798;9.928;2023-07-31T08:43:27;99329.78;;;21.13;57.72
19624;BME280;9959;49.798;9.928;2023-07-31T08:45:54;99321.09;;;21.06;57.82
19624;BME280;9959;49.798;9.928;2023-07-31T08:48:22;99320.41;;;21.24;57.86
19624;BME280;9959;49.798;9.928;2023-07-31T08:50:51;99316.28;;;21.93;56.24
19624;BME280;9959;49.798;9.928;2023-07-31T08:53:19;99327.41;;;22.45;54.08
19624;BME280;9959;49.798;9.928;2023-07-31T08:55:48;99310.56;;;21.47;56.78
19624;BME280;9959;49.798;9.928;2023-07-31T08:58:17;99316.81;;;21.53;56.83
19624;BME280;9959;49.798;9.928;2023-07-31T09:00:46;99310.06;;;22.31;55.16
19624;BME280;9959;49.798;9.928;2023-07-31T09:03:14;99305.81;;;22.19;54.70
19624;BME280;9959;49.798;9.928;2023-07-31T09:05:44;99301.47;;;21.94;55.61
19624;BME280;9959;49.798;9.928;2023-07-31T09:08:13;99290.91;;;22.77;53.17
19624;BME280;9959;49.798;9.928;2023-07-31T09:10:44;99299.03;;;22.87;52.25
19624;BME280;9959;49.798;9.928;2023-07-31T09:13:16;99291.47;;;23.39;51.47
19624;BME280;9959;49.798;9.928;2023-07-31T09:15:44;99301.16;;;22.71;53.11
19624;BME280;9959;49.798;9.928;2023-07-31T09:18:11;99304.06;;;22.10;54.28
19624;BME280;9959;49.798;9.928;2023-07-31T09:20:39;99298.50;;;22.15;55.04
19624;BME280;9959;49.798;9.928;2023-07-31T09:23:10;99300.78;;;22.08;55.06
19624;BME280;9959;49.798;9.928;2023-07-31T09:25:37;99296.19;;;21.79;55.67
19624;BME280;9959;49.798;9.928;2023-07-31T09:28:08;99297.34;;;22.16;55.59
19624;BME280;9959;49.798;9.928;2023-07-31T09:30:51;99300.63;;;22.18;55.04
19624;BME280;9959;49.798;9.928;2023-07-31T09:33:19;99291.63;;;22.50;54.38
19624;BME280;9959;49.798;9.928;2023-07-31T09:35:47;99284.88;;;22.61;53.79
19624;BME280;9959;49.798;9.928;2023-07-31T09:38:15;99269.78;;;23.51;51.89
19624;BME280;9959;49.798;9.928;2023-07-31T09:40:44;99277.88;;;22.87;52.04
19624;BME280;9959;49.798;9.928;2023-07-31T09:43:19;99271.63;;;22.82;52.16
19624;BME280;9959;49.798;9.928;2023-07-31T09:45:47;99253.19;;;22.50;52.98
19624;BME280;9959;49.798;9.928;2023-07-31T09:48:16;99257.03;;;22.68;53.12
19624;BME280;9959;49.798;9.928;2023-07-31T09:50:48;99250.91;;;23.03;52.43
19624;BME280;9959;49.798;9.928;2023-07-31T09:53:16;99261.19;;;22.65;53.64
19624;BME280;9959;49.798;9.928;2023-07-31T09:55:43;99255.94;;;22.69;52.90
19624;BME280;9959;49.798;9.928;2023-07-31T09:58:12;99246.28;;;22.01;53.86
19624;BME280;9959;49.798;9.928;2023-07-31T10:00:39;99266.00;;;22.41;53.73
19624;BME280;9959;49.798;9.928;2023-07-31T10:03:09;99261.25;;;22.27;54.02
19624;BME280;9959;49.798;9.928;2023-07-31T10:05:42;99263.56;;;22.02;54.59
19624;BME280;9959;49.798;9.928;2023-07-31T10:08:10;99254.59;;;22.15;53.91
19624;BME280;9959;49.798;9.928;2023-07-31T10:10:42;99254.34;;;22.30;53.49
19624;BME280;9959;49.798;9.928;2023-07-31T10:13:09;99252.56;;;22.39;53.92
19624;BME280;9959;49.798;9.928;2023-07-31T10:15:37;99237.63;;;22.13;53.70
19624;BME280;9959;49.798;9.928;2023-07-31T10:18:06;99238.91;;;21.96;54.36
19624;BME280;9959;49.798;9.928;2023-07-31T10:20:34;99246.69;;;21.89;55.75
19624;BME280;9959;49.798;9.928;2023-07-31T10:23:01;99245.16;;;21.83;56.35
19624;BME280;9959;49.798;9.928;2023-07-31T10:25:29;99244.03;;;21.84;56.91
19624;BME280;9959;49.798;9.928;2023-07-31T10:27:57;99238.72;;;22.12;56.58
19624;BME280;9959;49.798;9.928;2023-07-31T10:30:27;99238.13;;;22.47;54.61
19624;BME280;9959;49.798;9.928;2023-07-31T10:32:55;99242.78;;;22.33;53.82
19624;BME280;9959;49.798;9.928;2023-07-31T10:35:22;99232.13;;;22.13;54.66
19624;BME280;9959;49.798;9.928;2023-07-31T10:37:49;99240.47;;;22.21;54.99
19624;BME280;9959;49.798;9.928;2023-07-31T10:42:55;99237.28;;;21.95;55.24
19624;BME280;9959;49.798;9.928;2023-07-31T10:48:04;99224.94;;;22.49;53.47
19624;BME280;9959;49.798;9.928;2023-07-31T10:50:36;99211.28;;;22.44;53.46
19624;BME280;9959;49.798;9.928;2023-07-31T10:53:04;99217.13;;;22.56;53.28
19624;BME280;9959;49.798;9.928;2023-07-31T10:55:39;99217.41;;;22.41;53.13
19624;BME280;9959;49.798;9.928;2023-07-31T10:58:11;99213.34;;;22.52;53.15
19624;BME280;9959;49.798;9.928;2023-07-31T11:00:40;99205.88;;;22.72;52.90
19624;BME280;9959;49.798;9.928;2023-07-31T11:06:03;99201.16;;;23.46;50.74
19624;BME280;9959;49.798;9.928;2023-07-31T11:08:32;99193.53;;;23.43;49.24
19624;BME280;9959;49.798;9.928;2023-07-31T11:15:55;99159.56;;;23.25;49.36
19624;BME280;9959;49.798;9.928;2023-07-31T11:18:22;99177.25;;;23.05;49.85
19624;BME280;9959;49.798;9.928;2023-07-31T11:20:50;99177.66;;;22.52;51.16
19624;BME280;9959;49.798;9.928;2023-07-31T11:23:17;99172.31;;;22.75;50.59
19624;BME280;9959;49.798;9.928;2023-07-31T11:25:44;99165.47;;;22.72;50.24
19624;BME280;9959;49.798;9.928;2023-07-31T11:28:13;99162.28;;;23.11;50.10
19624;BME280;9959;49.798;9.928;2023-07-31T11:30:41;99162.69;;;23.05;50.14
19624;BME280;9959;49.798;9.928;2023-07-31T11:33:10;99161.16;;;22.99;49.62
19624;BME280;9959;49.798;9.928;2023-07-31T11:35:43;99165.44;;;23.05;49.66
19624;BME280;9959;49.798;9.928;2023-07-31T11:38:14;99164.41;;;23.42;48.98
19624;BME280;9959;49.798;9.928;2023-07-31T11:40:48;99164.63;;;23.18;48.87
19624;BME280;9959;49.798;9.928;2023-07-31T11:43:15;99169.09;;;23.27;48.91
19624;BME280;9959;49.798;9.928;2023-07-31T11:45:51;99163.28;;;23.43;47.90
19624;BME280;9959;49.798;9.928;2023-07-31T11:48:22;99162.91;;;23.08;48.51
19624;BME280;9959;49.798;9.928;2023-07-31T11:50:51;99152.91;;;23.40;48.13
19624;BME280;9959;49.798;9.928;2023-07-31T11:53:28;99153.38;;;23.55;47.81
19624;BME280;9959;49.798;9.928;2023-07-31T11:55:59;99156.91;;;24.06;46.53
19624;BME280;9959;49.798;9.928;2023-07-31T11:58:28;99155.63;;;23.67;47.76
19624;BME280;9959;49.798;9.928;2023-07-31T12:00:56;99159.41;;;23.93;46.83
19624;BME280;9959;49.798;9.928;2023-07-31T12:03:25;99156.16;;;23.91;46.68
19624;BME280;9959;49.798;9.928;2023-07-31T12:05:53;99145.56;;;24.83;44.80
19624;BME280;9959;49.798;9.928;2023-07-31T12:08:21;99147.06;;;24.58;45.53
19624;BME280;9959;49.798;9.928;2023-07-31T12:10:53;99161.53;;;24.19;46.14
19624;BME280;9959;49.798;9.928;2023-07-31T12:13:22;99153.53;;;24.62;45.97
19624;BME280;9959;49.798;9.928;2023-07-31T12:15:54;99135.19;;;24.80;45.48
19624;BME280;9959;49.798;9.928;2023-07-31T12:18:22;99148.69;;;24.59;44.94
19624;BME280;9959;49.798;9.928;2023-07-31T12:20:54;99149.06;;;23.77;46.39
19624;BME280;9959;49.798;9.928;2023-07-31T12:23:26;99148.72;;;23.56;46.81
19624;BME280;9959;49.798;9.928;2023-07-31T12:26:15;99138.41;;;23.98;46.68
19624;BME280;9959;49.798;9.928;2023-07-31T12:28:48;99141.53;;;24.27;46.30
19624;BME280;9959;49.798;9.928;2023-07-31T12:31:17;99133.16;;;24.32;45.43
19624;BME280;9959;49.798;9.928;2023-07-31T12:33:45;99135.84;;;25.34;43.08
19624;BME280;9959;49.798;9.928;2023-07-31T12:36:14;99126.19;;;24.96;44.53
19624;BME280;9959;49.798;9.928;2023-07-31T12:38:43;99132.88;;;24.73;43.98
19624;BME280;9959;49.798;9.928;2023-07-31T12:41:10;99131.03;;;26.00;42.14
19624;BME280;9959;49.798;9.928;2023-07-31T12:43:40;99107.97;;;26.04;41.79
19624;BME280;9959;49.798;9.928;2023-07-31T12:46:07;99114.13;;;26.10;40.97
19624;BME280;9959;49.798;9.928;2023-07-31T12:48:35;99124.81;;;25.34;42.63
19624;BME280;9959;49.798;9.928;2023-07-31T12:51:02;99100.66;;;24.91;44.65
19624;BME280;9959;49.798;9.928;2023-07-31T12:53:30;99105.63;;;24.32;45.11
19624;BME280;9959;49.798;9.928;2023-07-31T12:55:57;99100.25;;;24.05;45.81
19624;BME280;9959;49.798;9.928;2023-07-31T12:58:24;99095.03;;;23.81;47.59
19624;BME280;9959;49.798;9.928;2023-07-31T13:00:51;99098.25;;;23.96;52.14
19624;BME280;9959;49.798;9.928;2023-07-31T13:03:18;99096.25;;;23.52;52.58
19624;BME280;9959;49.798;9.928;2023-07-31T13:05:45;99106.03;;;22.95;55.68
19624;BME280;9959;49.798;9.928;2023-07-31T13:08:12;99106.41;;;22.61;58.23
19624;BME280;9959;49.798;9.928;2023-07-31T13:10:39;99108.13;;;23.25;56.50
19624;BME280;9959;49.798;9.928;2023-07-31T13:13:06;99113.38;;;23.85;53.32
19624;BME280;9959;49.798;9.928;2023-07-31T13:15:33;99100.47;;;24.39;53.45
19624;BME280;9959;49.798;9.928;2023-07-31T13:18:00;99087.78;;;27.14;45.74
19624;BME280;9959;49.798;9.928;2023-07-31T13:20:27;99083.22;;;27.39;44.21
19624;BME280;9959;49.798;9.928;2023-07-31T13:22:54;99078.59;;;26.63;43.90
19624;BME280;9959;49.798;9.928;2023-07-31T13:25:20;99065.06;;;26.24;44.96
19624;BME280;9959;49.798;9.928;2023-07-31T13:27:47;99076.34;;;25.76;45.57
19624;BME280;9959;49.798;9.928;2023-07-31T13:30:14;99066.56;;;26.04;44.49
19624;BME280;9959;49.798;9.928;2023-07-31T13:32:41;99061.84;;;26.05;42.95